x

Half Moon Bay - 24nm Ssw Of San Francisco, Ca (46012) Wave Buoy

12:50pm - Mon 2nd Mar 2015 All times are PST. -8 hours from GMT.

  • Sig Wave height 8.5ft
  • Swell Direction
  • Peak Period 10s
  • Average Period 7s
  • Wind
    11mph, 16mph gusts
  • Sea Temp 57°f
  • Air Temp 54°f
  • Sea Pressure 1009.5mb
  • Half Moon Bay - 24nm Ssw Of San Francisco, Ca
  • Half Moon Bay - 24nm Ssw Of San Francisco, Ca

More Historic Weather Station data

Upgrade to MSW Pro to gain access to the past 30 days of data for over 8000 Wavebouys and Weather Stations around the globe.

Join Pro

Comparision Forecast

View Surf forecast
   
Mon 03/02 12:50pm 8.5ft 10s 7s 11 16 mph 1009.5mb 57f 54f
11:50am 9ft 10s 7s 13 16 mph 1009.6mb 57f 54f
10:50am 8ft 8s 6s 16 20 mph 1009.5mb 57f 55f
9:50am 7.5ft 9s 7s 16 18 mph 1009.8mb 57f 55f
8:50am 7ft 10s 6s 18 22 mph 1009.9mb 57f 55f
7:50am 6.5ft 9s 6s 13 18 mph 1009.8mb 57f 54f
6:50am 5.5ft 10s 6s 13 16 mph 1010mb 57f 55f
5:50am 5ft 9s 6s 13 16 mph 1010.2mb 57f 55f
4:50am 5ft 9s 7s 13 16 mph 1010.5mb 57f 55f
3:50am 5.5ft 9s 7s 9 11 mph 1010.6mb 57f 55f
2:50am 5.5ft 10s 7s 9 11 mph 1011.2mb 57f 55f
1:50am 5.5ft 10s 7s 11 13 mph 1012.1mb 57f 55f
12:50am 6.5ft 10s 8s 11 13 mph 1012.8mb 57f 56f
Sun 03/01 11:50pm 6ft 9s 7s 9 11 mph 1013.1mb 57f 56f
10:50pm 7ft 9s 7s 7 9 mph 1013.4mb 57f 56f
9:50pm 6.5ft 10s 7s 7 11 mph 1013.7mb 57f 56f
8:50pm 6ft 8s 7s 11 13 mph 1013.7mb 57f 56f
7:50pm 6ft 11s 7s 13 16 mph 1013.6mb 57f 56f
6:50pm 7ft 11s 8s 13 16 mph 1013.4mb 57f 56f
5:50pm 6.5ft 11s 8s 13 16 mph 1013.2mb 57f 57f
4:50pm 6.5ft 11s 8s 13 16 mph 1013.1mb 57f 56f
3:50pm 7ft 11s 8s 13 16 mph 1013.4mb 57f 56f
2:50pm 7ft 11s 8s 13 16 mph 1013.6mb 57f 58f
1:50pm 8ft 12s 8s 9 11 mph 1013.9mb 57f 56f
12:50pm 7.5ft 11s 8s 11 13 mph 1014.3mb 57f 56f
11:50am 8.5ft 11s 9s 11 13 mph 1014.9mb 57f 56f
10:50am 8.5ft 11s 8s 7 9 mph 1015.1mb 57f 55f
9:50am 8ft 12s 8s 9 13 mph 1015.2mb 57f 55f
8:50am 10ft 11s 9s 11 16 mph 1014.8mb 57f 55f
7:50am 9ft 11s 9s 11 13 mph 1014.3mb 57f 56f
6:50am 10ft 11s 9s 11 13 mph 1013.7mb 57f 55f
5:50am 10ft 11s 9s 9 11 mph 1013.4mb 57f 55f
4:50am 9ft 11s 9s 11 13 mph 1013.2mb 57f 55f
3:50am 8.5ft 11s 8s 9
mph
1012.8mb 57f 56f
2:50am 9.5ft 11s 9s 9
mph
1012.8mb 57f 56f
1:50am 9ft 11s 8s 7 9 mph 1012.9mb 57f 57f
12:50am 9ft 11s 8s 9 11 mph 1012.8mb 57f 56f
Sat 02/28 11:50pm 9ft 11s 8s 11 13 mph 1012.4mb 57f 56f
10:50pm 7.5ft 10s 8s 9 11 mph 1012.2mb 57f 56f
9:50pm 7.5ft 10s 8s 9 11 mph 1011.8mb 57f 56f
8:50pm 8ft 9s 8s 13 16 mph 1011.2mb 57f 55f
7:50pm 7.5ft 10s 8s 9 13 mph 1010.8mb 57f 55f
6:50pm 8ft 10s 8s 7 9 mph 1010.3mb 57f 55f
5:50pm 7.5ft 9s 8s 4 7 mph 1009.5mb 57f 55f
4:50pm 7ft 10s 7s 4 7 mph 1009.1mb 58f 55f
3:50pm 7ft 10s 7s 9 11 mph 1008.9mb 58f 55f
2:50pm 7.5ft 9s 7s 9 11 mph 1008.6mb 58f 54f
1:50pm 7ft 9s 7s 9 11 mph 1008.6mb 57f 54f
12:50pm 7.5ft 9s 7s 11 20 mph 1008.9mb 57f 55f
11:50am 7ft 8s 7s 11 16 mph 1009.1mb 57f 55f
10:50am 6.5ft 8s 6s 11 16 mph 1009mb 57f 55f
9:50am 7ft 8s 7s 11 16 mph 1008.6mb 57f 54f
8:50am 7ft 8s 7s 13 16 mph 1008mb 57f 54f
7:50am 7.5ft 9s 7s 16 20 mph 1007.4mb 57f 55f
6:50am 7ft 9s 7s 13 18 mph 1007mb 57f 54f
5:50am 7ft 8s 6s 18 20 mph 1006.8mb 58f 54f
4:50am 7ft 8s 6s 18 22 mph 1006.5mb 58f 54f
3:50am 7ft 8s 6s 16 20 mph 1006.6mb 58f 53f
2:50am 7.5ft 8s 6s 20 25 mph 1007.1mb 58f 54f
1:50am 7.5ft 8s 6s 18 22 mph 1007.5mb 58f 54f
12:50am 8ft 8s 6s 16 20 mph 1007.8mb 58f 55f
Fri 02/27 11:50pm 8ft 8s 6s 20 25 mph 1007.9mb 58f 54f
10:50pm 8ft 7s 6s 20 27 mph 1008mb 58f 55f
9:50pm 7.5ft 8s 6s 22 25 mph 1008.3mb 58f 55f
8:50pm 7ft 7s 6s 20 25 mph 1008.3mb 58f 55f
7:50pm 7ft 7s 6s 22 27 mph 1008.4mb 58f 55f
6:50pm 6ft 8s 5s 22 29 mph 1008.7mb 58f 55f
5:50pm 6.5ft 7s 6s 22 25 mph 1008.8mb 58f 55f
4:50pm 6ft 7s 5s 22 27 mph 1009.1mb 58f 55f
3:50pm 6ft 7s 5s 20 25 mph 1009.6mb 58f 55f
2:50pm 6ft 7s 5s 20 25 mph 1009.9mb 58f 55f
1:50pm 6ft 7s 5s 20 25 mph 1010.3mb 58f 55f
12:50pm 5.5ft 7s 5s 18 22 mph 1011.3mb 58f 55f
11:50am 5.5ft 6s 5s 18 22 mph 1012.2mb 58f 55f
10:50am 6ft 7s 6s 18 22 mph 1012.5mb 58f 56f
9:50am 5.5ft 7s 6s 20 25 mph 1012.7mb 58f 56f
8:50am 6ft 7s 6s 18 20 mph 1012.6mb 58f 56f
7:50am 7ft 8s 6s 20 22 mph 1012.2mb 58f 56f
6:50am 8ft 7s 6s 20 25 mph 1012mb 58f 56f
5:50am 8ft 8s 6s 25 31 mph 1012.1mb 58f 56f
4:50am 9ft 8s 6s 27 34 mph 1012.3mb 58f 56f
3:50am 11ft 8s 7s 29 34 mph 1012.2mb 58f 56f
2:50am 10ft 8s 7s 27 34 mph 1012.5mb 58f 56f
1:50am 13ft 8s 7s 29 36 mph 1012.9mb 58f 56f
12:50am 12ft 9s 7s 31 40 mph 1013.3mb 58f 56f
Thu 02/26 11:50pm 12ft 8s 7s 31 38 mph 1013.2mb 58f 56f
10:50pm 12.5ft 9s 7s 34 43 mph 1013.8mb 58f 56f
9:50pm 12ft 9s 7s 34 40 mph 1013.6mb 58f 56f